Log in Register

Login to your account

Username *
Password *
Remember Me

Create an account

Fields marked with an asterisk (*) are required.
Name *
Username *
Password *
Verify password *
Email *
Verify email *

A compter du 07 juillet 2020, nous reprenons l'ensemble des vols, y compris les vols de découverte, d'initiation au pilotage, ainsi que les packs 2 heures et 5 heures.

La permanence téléphonique (04 79 54 41 81) sera tenue de 14h à 17h30, du mardi au vendredi, et de 9h00 à 12h30 le samedi matin.

Nous contacter

 Téléphone : +33 (0)4 79 54 41 81

Coordonnées détaillées et accès : cliquez ici

 
LFLB °C
    Ferienhaus Ostsee
[source: ADDS]
METAR
LFLB 282330Z AUTO VRB03KT 9999 FEW041/// BKN074/// OVC092/// ///TCU 14/10 Q1022 =
TAF LFLB 281400Z 2815/2915 18010KT 9999 BKN060 PROB40 TEMPO 2815/2819 SHRA SCT040TCU TEMPO 2901/2906 5000 -RA BECMG 2908/2910 36005KT
TAF
TAF LFLB 281400Z 2815/2915 18010KT 9999 BKN060 PROB40 TEMPO 2815/2819 SHRA SCT040TCU TEMPO 2901/2906 5000 -RA BECMG 2908/2910 36005KT =
SR / SS: 06:12 / 16:27 UTC (Lever/Coucher du soleil le 2020-10-29)
JSN Boot template designed by JoomlaShine.com